createdAt,value
2022-08-26T00:01:56.419Z,15.90
2022-08-26T00:04:25.982Z,16.00
2022-08-26T00:06:57.424Z,15.90
2022-08-26T00:09:26.260Z,15.90
2022-08-26T00:11:54.820Z,15.80
2022-08-26T00:14:28.257Z,15.80
2022-08-26T00:16:58.027Z,15.80
2022-08-26T00:19:25.751Z,15.70
2022-08-26T00:21:54.397Z,15.80
2022-08-26T00:24:23.799Z,15.80
2022-08-26T00:26:51.855Z,15.80
2022-08-26T00:29:19.530Z,15.80
2022-08-26T00:31:48.971Z,16.00
2022-08-26T00:34:19.503Z,16.20
2022-08-26T00:36:50.882Z,16.40
2022-08-26T00:39:20.406Z,16.50
2022-08-26T00:41:48.569Z,16.60
2022-08-26T00:44:16.363Z,16.80
2022-08-26T00:46:49.629Z,16.90
2022-08-26T00:49:22.121Z,17.00
2022-08-26T00:51:55.864Z,17.10
2022-08-26T00:54:27.089Z,17.10
2022-08-26T00:57:16.396Z,17.20
2022-08-26T00:59:48.724Z,17.20
2022-08-26T01:02:21.152Z,17.20
2022-08-26T01:04:52.629Z,17.30
2022-08-26T01:07:25.781Z,17.30
2022-08-26T01:09:53.387Z,17.30
2022-08-26T01:12:22.372Z,17.30
2022-08-26T01:14:50.461Z,17.30
2022-08-26T01:17:18.635Z,17.30
2022-08-26T01:19:50.893Z,17.30
2022-08-26T01:22:31.572Z,17.40
2022-08-26T01:25:03.522Z,17.40
2022-08-26T01:27:33.638Z,17.40
2022-08-26T01:30:02.754Z,17.40
2022-08-26T01:32:32.203Z,17.40
2022-08-26T01:34:59.956Z,17.40
2022-08-26T01:37:33.942Z,17.40
2022-08-26T01:40:01.431Z,17.40
2022-08-26T01:42:29.665Z,17.40
2022-08-26T01:45:05.883Z,17.40
2022-08-26T01:47:35.864Z,17.40
2022-08-26T01:50:07.974Z,17.40
2022-08-26T01:52:38.611Z,17.40
2022-08-26T01:55:07.186Z,17.30
2022-08-26T01:57:36.582Z,17.30
2022-08-26T02:00:11.299Z,17.20
2022-08-26T02:02:38.812Z,17.30
2022-08-26T02:05:11.256Z,17.20
2022-08-26T02:07:40.117Z,17.30
2022-08-26T02:10:08.367Z,17.30
2022-08-26T02:12:36.778Z,17.20
2022-08-26T02:15:11.066Z,17.30
2022-08-26T02:17:46.243Z,17.30
2022-08-26T02:20:17.531Z,17.30
2022-08-26T02:22:45.690Z,17.20
2022-08-26T02:25:28.656Z,17.30
2022-08-26T02:27:57.124Z,17.30
2022-08-26T02:30:32.312Z,17.30
2022-08-26T02:33:07.330Z,17.40
2022-08-26T02:35:36.271Z,17.30
2022-08-26T02:38:10.108Z,17.30
2022-08-26T02:40:41.348Z,17.20
2022-08-26T02:43:10.000Z,17.30
2022-08-26T02:45:37.605Z,17.30
2022-08-26T02:48:16.558Z,17.30
2022-08-26T02:50:46.739Z,17.30
2022-08-26T02:53:15.768Z,17.20
2022-08-26T02:55:43.497Z,17.20
2022-08-26T02:58:11.694Z,17.20
2022-08-26T03:00:39.871Z,17.20
2022-08-26T03:03:22.471Z,17.20
2022-08-26T03:05:51.834Z,17.40
2022-08-26T03:08:19.530Z,17.30
2022-08-26T03:10:48.172Z,17.30
2022-08-26T03:13:17.045Z,17.30
2022-08-26T03:15:45.927Z,17.40
2022-08-26T03:18:15.269Z,17.50
2022-08-26T03:20:42.710Z,17.40
2022-08-26T03:23:11.527Z,17.30
2022-08-26T03:25:40.459Z,17.40
2022-08-26T03:28:07.934Z,17.30
2022-08-26T03:30:45.507Z,17.50
2022-08-26T03:33:14.225Z,17.50
2022-08-26T03:35:44.219Z,17.40
2022-08-26T03:38:12.028Z,17.40
2022-08-26T03:40:40.473Z,17.50
2022-08-26T03:43:10.256Z,17.50
2022-08-26T03:45:38.510Z,17.50
2022-08-26T03:48:06.191Z,17.50
2022-08-26T03:50:35.798Z,17.50
2022-08-26T03:53:04.612Z,17.50
2022-08-26T03:55:34.987Z,17.50
2022-08-26T03:58:02.871Z,17.50
2022-08-26T04:00:31.345Z,17.40
2022-08-26T04:02:58.726Z,17.30
2022-08-26T04:05:26.107Z,17.40
2022-08-26T04:07:55.514Z,17.30
2022-08-26T04:10:28.488Z,17.50
2022-08-26T04:12:58.781Z,17.40
2022-08-26T04:15:27.344Z,17.30
2022-08-26T04:17:55.803Z,17.40
2022-08-26T04:20:23.504Z,17.40
2022-08-26T04:22:51.174Z,17.40
2022-08-26T04:25:19.042Z,17.40
2022-08-26T04:27:48.430Z,17.50
2022-08-26T04:30:16.647Z,17.60
2022-08-26T04:32:44.362Z,17.70
2022-08-26T04:35:12.212Z,17.70
2022-08-26T04:37:39.827Z,17.80
2022-08-26T04:40:11.817Z,17.90
2022-08-26T04:42:39.242Z,17.80
2022-08-26T04:45:10.419Z,17.80
2022-08-26T04:47:39.127Z,17.90
2022-08-26T04:50:07.713Z,17.90
2022-08-26T04:52:36.964Z,18.10
2022-08-26T04:55:06.652Z,18.40
2022-08-26T04:57:35.977Z,18.40
2022-08-26T05:00:07.293Z,18.40
2022-08-26T05:02:34.931Z,18.50
2022-08-26T05:05:02.682Z,18.50
2022-08-26T05:07:31.901Z,18.60
2022-08-26T05:09:59.423Z,18.70
2022-08-26T05:12:28.132Z,18.60
2022-08-26T05:14:55.722Z,18.70
2022-08-26T05:17:23.234Z,18.80
2022-08-26T05:19:50.992Z,18.90
2022-08-26T05:22:18.420Z,18.90
2022-08-26T05:24:46.878Z,19.00
2022-08-26T05:27:15.274Z,18.90
2022-08-26T05:29:42.724Z,19.10
2022-08-26T05:32:12.194Z,19.10
2022-08-26T05:34:39.594Z,19.20
2022-08-26T05:37:10.354Z,19.50
2022-08-26T05:39:43.526Z,19.90
2022-08-26T05:42:20.073Z,20.10
2022-08-26T05:44:55.351Z,20.00
2022-08-26T05:47:24.686Z,20.10
2022-08-26T05:49:52.205Z,20.00
2022-08-26T05:52:20.672Z,19.80
2022-08-26T05:54:48.350Z,19.80
2022-08-26T05:57:16.168Z,19.60
2022-08-26T05:59:46.502Z,19.60
2022-08-26T06:02:14.111Z,19.70
2022-08-26T06:04:41.688Z,19.70
2022-08-26T06:07:11.593Z,19.70
2022-08-26T06:09:40.517Z,19.70
2022-08-26T06:12:08.067Z,19.70
2022-08-26T06:14:36.671Z,19.80
2022-08-26T06:17:04.670Z,19.80
2022-08-26T06:19:32.736Z,20.00
2022-08-26T06:22:23.312Z,20.00
2022-08-26T06:25:09.467Z,20.20
2022-08-26T06:27:37.473Z,20.50
2022-08-26T06:30:05.593Z,20.50
2022-08-26T06:32:33.901Z,20.50
2022-08-26T06:35:01.610Z,20.40
2022-08-26T06:37:29.009Z,20.80
2022-08-26T06:39:56.697Z,21.70
2022-08-26T06:42:25.069Z,22.20
2022-08-26T06:44:52.479Z,22.20
2022-08-26T06:47:19.978Z,21.90
2022-08-26T06:49:48.643Z,21.60
2022-08-26T06:52:22.919Z,21.70
2022-08-26T06:54:52.364Z,22.20
2022-08-26T06:57:20.507Z,22.50
2022-08-26T06:59:48.885Z,22.50
2022-08-26T07:02:18.822Z,22.40
2022-08-26T07:04:47.849Z,22.60
2022-08-26T07:07:16.067Z,22.90
2022-08-26T07:09:43.685Z,23.00
2022-08-26T07:12:11.113Z,23.10
2022-08-26T07:14:38.591Z,23.10
2022-08-26T07:17:11.017Z,22.90
2022-08-26T07:19:41.267Z,22.90
2022-08-26T07:22:09.027Z,22.50
2022-08-26T07:24:42.438Z,22.40
2022-08-26T07:27:14.107Z,22.60
2022-08-26T07:29:43.995Z,23.10
2022-08-26T07:32:13.815Z,22.80
2022-08-26T07:34:42.433Z,22.70
2022-08-26T07:37:10.681Z,22.90
2022-08-26T07:39:38.689Z,23.20
2022-08-26T07:42:09.289Z,23.40
2022-08-26T07:44:38.678Z,23.60
2022-08-26T07:47:25.573Z,23.50
2022-08-26T07:49:55.598Z,23.50
2022-08-26T07:52:26.905Z,23.60
2022-08-26T07:54:59.881Z,23.60
2022-08-26T07:57:28.753Z,23.60
2022-08-26T07:59:56.787Z,23.50
2022-08-26T08:02:25.593Z,23.50
2022-08-26T08:04:54.855Z,23.70
2022-08-26T08:07:38.507Z,23.80
2022-08-26T08:10:13.788Z,23.70
2022-08-26T08:12:43.098Z,23.90
2022-08-26T08:15:14.553Z,23.80
2022-08-26T08:17:46.194Z,23.70
2022-08-26T08:20:18.850Z,23.70
2022-08-26T08:22:47.151Z,23.80
2022-08-26T08:25:14.987Z,24.00
2022-08-26T08:27:45.502Z,24.20
2022-08-26T08:30:14.393Z,24.30
2022-08-26T08:32:43.841Z,24.30
2022-08-26T08:35:14.052Z,24.50
2022-08-26T08:37:42.270Z,24.70
2022-08-26T08:40:12.476Z,24.70
2022-08-26T08:42:55.371Z,24.70
2022-08-26T08:45:37.454Z,24.80
2022-08-26T08:48:13.427Z,24.70
2022-08-26T08:50:56.956Z,24.80
2022-08-26T08:53:37.961Z,24.80
2022-08-26T08:56:23.952Z,25.00
2022-08-26T08:59:04.243Z,25.10
2022-08-26T09:01:53.931Z,25.00
2022-08-26T09:04:47.348Z,25.00
2022-08-26T09:07:34.518Z,25.30
2022-08-26T09:10:22.558Z,25.50
2022-08-26T09:12:51.511Z,25.70
2022-08-26T09:15:34.645Z,25.70
2022-08-26T09:18:16.668Z,25.80
2022-08-26T09:20:59.477Z,25.90
2022-08-26T09:23:27.273Z,25.70
2022-08-26T09:25:58.145Z,25.90
2022-08-26T09:28:28.761Z,25.90
2022-08-26T09:31:32.779Z,25.80
2022-08-26T09:34:09.041Z,25.50
2022-08-26T09:36:41.377Z,25.50
2022-08-26T09:39:28.389Z,25.50
2022-08-26T09:42:06.795Z,25.50
2022-08-26T09:44:35.995Z,25.60
2022-08-26T09:47:07.225Z,25.80
2022-08-26T09:49:40.197Z,25.90
2022-08-26T09:52:13.879Z,26.20
2022-08-26T09:54:44.269Z,26.40
2022-08-26T09:57:25.192Z,26.30
2022-08-26T09:59:53.159Z,26.40
2022-08-26T10:02:38.108Z,26.50
2022-08-26T10:05:16.197Z,26.50
2022-08-26T10:07:50.285Z,26.60
2022-08-26T10:10:26.522Z,26.70
2022-08-26T10:13:29.555Z,26.70
2022-08-26T10:16:25.787Z,26.50
2022-08-26T10:19:06.840Z,26.60
2022-08-26T10:22:29.088Z,26.60
2022-08-26T10:24:59.671Z,26.90
2022-08-26T10:27:54.308Z,27.00
2022-08-26T10:30:24.643Z,27.10
2022-08-26T10:33:10.503Z,27.00
2022-08-26T10:35:50.408Z,26.70
2022-08-26T10:38:23.082Z,26.90
2022-08-26T10:41:10.364Z,27.10
2022-08-26T10:43:41.072Z,27.10
2022-08-26T10:46:17.589Z,27.00
2022-08-26T10:49:06.799Z,26.90
2022-08-26T10:51:45.753Z,27.10
2022-08-26T10:54:22.463Z,27.20
2022-08-26T10:57:09.607Z,27.40
2022-08-26T10:59:53.869Z,27.20
2022-08-26T11:02:26.273Z,27.00
2022-08-26T11:04:59.963Z,26.90
2022-08-26T11:07:52.747Z,27.00
2022-08-26T11:10:23.151Z,27.10
2022-08-26T11:13:20.194Z,27.00
2022-08-26T11:16:08.669Z,26.80
2022-08-26T11:18:44.714Z,26.90
2022-08-26T11:22:19.749Z,27.10
2022-08-26T11:24:53.352Z,27.00
2022-08-26T11:27:26.438Z,26.90
2022-08-26T11:30:01.951Z,26.70
2022-08-26T11:32:35.191Z,26.70
2022-08-26T11:35:17.737Z,26.60
2022-08-26T11:38:04.241Z,26.70
2022-08-26T11:40:38.800Z,27.00
2022-08-26T11:43:11.549Z,27.10
2022-08-26T11:45:44.988Z,27.00
2022-08-26T11:48:19.507Z,27.10
2022-08-26T11:51:01.347Z,27.10
2022-08-26T11:53:33.341Z,27.20
2022-08-26T11:56:05.134Z,27.30
2022-08-26T11:58:33.030Z,27.30
2022-08-26T12:01:09.774Z,27.60
2022-08-26T12:03:39.033Z,27.70
2022-08-26T12:06:22.638Z,27.90
2022-08-26T12:08:52.328Z,28.10
2022-08-26T12:11:24.709Z,28.20
2022-08-26T12:14:01.074Z,28.30
2022-08-26T12:16:31.340Z,28.50
2022-08-26T12:18:59.512Z,28.60
2022-08-26T12:21:31.524Z,28.70
2022-08-26T12:24:04.561Z,28.80
2022-08-26T12:26:37.476Z,28.50
2022-08-26T12:29:27.154Z,28.20
2022-08-26T12:32:17.872Z,27.80
2022-08-26T12:34:47.762Z,27.40
2022-08-26T12:37:16.316Z,27.20
2022-08-26T12:39:47.320Z,26.80
2022-08-26T12:42:17.536Z,26.50
2022-08-26T12:44:54.134Z,26.60
2022-08-26T12:47:42.925Z,26.70
2022-08-26T12:50:30.821Z,27.00
2022-08-26T12:53:12.194Z,27.10
2022-08-26T12:55:44.121Z,27.20
2022-08-26T12:58:11.648Z,27.30
2022-08-26T13:00:42.600Z,27.40
2022-08-26T13:03:38.847Z,27.40
2022-08-26T13:06:30.332Z,27.40
2022-08-26T13:09:22.247Z,27.50
2022-08-26T13:11:49.610Z,27.50
2022-08-26T13:14:24.244Z,27.60
2022-08-26T13:16:53.410Z,27.50
2022-08-26T13:19:24.006Z,27.40
2022-08-26T13:21:57.323Z,27.20
2022-08-26T13:24:38.652Z,27.40
2022-08-26T13:27:09.373Z,27.50
2022-08-26T13:29:37.055Z,27.70
2022-08-26T13:32:06.451Z,27.80
2022-08-26T13:34:35.648Z,27.80
2022-08-26T13:37:03.732Z,27.80
2022-08-26T13:39:31.297Z,27.80
2022-08-26T13:41:59.091Z,27.90
2022-08-26T13:44:26.608Z,27.80
2022-08-26T13:46:54.707Z,27.60
2022-08-26T13:49:22.943Z,27.50
2022-08-26T13:51:50.500Z,27.10
2022-08-26T13:54:18.090Z,26.80
2022-08-26T13:56:45.574Z,26.70
2022-08-26T13:59:12.955Z,26.60
2022-08-26T14:01:40.661Z,26.80
2022-08-26T14:04:08.977Z,26.80
2022-08-26T14:06:36.535Z,26.70
2022-08-26T14:09:04.773Z,26.60
2022-08-26T14:11:50.866Z,26.50
2022-08-26T14:14:19.819Z,26.30
2022-08-26T14:16:58.648Z,26.00
2022-08-26T14:19:30.395Z,25.90
2022-08-26T14:21:59.619Z,26.10
2022-08-26T14:24:27.178Z,26.00
2022-08-26T14:26:54.696Z,25.90
2022-08-26T14:29:22.266Z,25.80
2022-08-26T14:31:49.857Z,25.80
2022-08-26T14:34:17.459Z,26.00
2022-08-26T14:36:44.904Z,26.00
2022-08-26T14:39:13.896Z,26.30
2022-08-26T14:41:53.931Z,26.30
2022-08-26T14:44:26.139Z,26.40
2022-08-26T14:46:54.991Z,26.40
2022-08-26T14:49:23.961Z,26.30
2022-08-26T14:51:51.342Z,26.30
2022-08-26T14:54:20.132Z,26.30
2022-08-26T14:56:51.626Z,26.20
2022-08-26T14:59:23.223Z,26.20
2022-08-26T15:01:50.827Z,26.30
2022-08-26T15:04:19.623Z,26.10
2022-08-26T15:06:47.355Z,26.10
2022-08-26T15:09:15.343Z,26.20
2022-08-26T15:11:47.657Z,26.10
2022-08-26T15:14:19.650Z,26.10
2022-08-26T15:16:52.867Z,26.10
2022-08-26T15:19:21.267Z,26.00
2022-08-26T15:21:49.428Z,26.00
2022-08-26T15:24:22.313Z,25.80
2022-08-26T15:26:50.423Z,25.80
2022-08-26T15:29:18.642Z,25.90
2022-08-26T15:31:46.943Z,25.90
2022-08-26T15:34:16.958Z,25.80
2022-08-26T15:36:47.066Z,25.70
2022-08-26T15:39:17.403Z,25.70
2022-08-26T15:41:45.786Z,25.70
2022-08-26T15:44:14.632Z,25.60
2022-08-26T15:46:42.812Z,25.60
2022-08-26T15:49:18.548Z,25.60
2022-08-26T15:51:48.352Z,25.50
2022-08-26T15:54:17.999Z,25.50
2022-08-26T15:56:47.945Z,25.50
2022-08-26T15:59:16.516Z,25.50
2022-08-26T16:01:44.502Z,25.40
2022-08-26T16:04:12.236Z,25.40
2022-08-26T16:06:41.357Z,25.40
2022-08-26T16:09:09.563Z,25.30
2022-08-26T16:11:38.183Z,25.30
2022-08-26T16:14:06.709Z,25.20
2022-08-26T16:16:36.790Z,25.10
2022-08-26T16:19:07.425Z,25.10
2022-08-26T16:21:36.222Z,25.00
2022-08-26T16:24:05.352Z,25.00
2022-08-26T16:26:34.912Z,24.90
2022-08-26T16:29:04.935Z,24.80
2022-08-26T16:31:32.468Z,24.90
2022-08-26T16:33:59.990Z,24.80
2022-08-26T16:36:28.256Z,24.80
2022-08-26T16:38:56.989Z,24.70
2022-08-26T16:41:27.319Z,24.70
2022-08-26T16:43:55.529Z,24.60
2022-08-26T16:46:25.999Z,24.50
2022-08-26T16:48:57.042Z,24.50
2022-08-26T16:51:27.437Z,24.40
2022-08-26T16:53:57.996Z,24.40
2022-08-26T16:56:33.725Z,24.30
2022-08-26T16:59:05.524Z,24.20
2022-08-26T17:01:33.565Z,24.20
2022-08-26T17:04:01.158Z,24.10
2022-08-26T17:06:29.036Z,24.10
2022-08-26T17:08:56.801Z,24.10
2022-08-26T17:11:24.491Z,24.00
2022-08-26T17:13:52.001Z,23.80
2022-08-26T17:16:23.289Z,23.90
2022-08-26T17:18:54.958Z,23.70
2022-08-26T17:21:22.693Z,23.70
2022-08-26T17:23:50.485Z,23.60
2022-08-26T17:26:18.271Z,23.60
2022-08-26T17:28:45.747Z,23.50
2022-08-26T17:31:13.905Z,23.30
2022-08-26T17:33:41.562Z,23.30
2022-08-26T17:36:10.219Z,23.10
2022-08-26T17:38:38.472Z,23.00
2022-08-26T17:41:11.864Z,22.90
2022-08-26T17:43:40.790Z,22.70
2022-08-26T17:46:11.097Z,22.60
2022-08-26T17:48:40.620Z,22.40
2022-08-26T17:51:13.481Z,22.40
2022-08-26T17:53:42.980Z,22.10
2022-08-26T17:56:13.240Z,22.00
2022-08-26T17:58:51.025Z,22.00
2022-08-26T18:01:23.846Z,21.90
2022-08-26T18:03:51.559Z,21.80
2022-08-26T18:06:21.057Z,21.70
2022-08-26T18:08:48.761Z,21.60
2022-08-26T18:11:19.221Z,21.50
2022-08-26T18:13:47.767Z,21.50
2022-08-26T18:16:17.863Z,21.50
2022-08-26T18:18:45.899Z,21.40
2022-08-26T18:21:20.828Z,21.50
2022-08-26T18:23:50.260Z,21.50
2022-08-26T18:26:25.501Z,21.40
2022-08-26T18:28:53.904Z,21.50
2022-08-26T18:31:22.020Z,21.50
2022-08-26T18:33:49.455Z,21.40
2022-08-26T18:36:19.178Z,21.50
2022-08-26T18:38:48.020Z,21.40
2022-08-26T18:41:20.915Z,21.40
2022-08-26T18:43:50.720Z,21.30
2022-08-26T18:46:20.217Z,21.30
2022-08-26T18:48:51.192Z,21.30
2022-08-26T18:51:30.095Z,21.20
2022-08-26T18:53:58.990Z,21.10
2022-08-26T18:56:27.295Z,21.10
2022-08-26T18:58:55.024Z,21.10
2022-08-26T19:01:27.578Z,21.00
2022-08-26T19:03:59.707Z,21.10
2022-08-26T19:06:32.328Z,21.00
2022-08-26T19:09:01.568Z,20.90
2022-08-26T19:11:32.163Z,20.80
2022-08-26T19:14:10.587Z,20.60
2022-08-26T19:16:39.028Z,20.50
2022-08-26T19:19:07.355Z,20.50
2022-08-26T19:21:36.176Z,20.50
2022-08-26T19:24:07.554Z,20.40
2022-08-26T19:26:37.815Z,20.30
2022-08-26T19:29:06.165Z,20.30
2022-08-26T19:31:34.074Z,20.10
2022-08-26T19:34:01.504Z,20.10
2022-08-26T19:36:29.111Z,20.20
2022-08-26T19:38:57.060Z,20.00
2022-08-26T19:41:36.706Z,19.90
2022-08-26T19:44:13.274Z,19.90
2022-08-26T19:46:41.381Z,19.90
2022-08-26T19:49:08.796Z,19.80
2022-08-26T19:51:37.045Z,19.80
2022-08-26T19:54:05.178Z,19.80
2022-08-26T19:56:32.667Z,19.70
2022-08-26T19:59:00.141Z,19.70
2022-08-26T20:01:27.598Z,19.60
2022-08-26T20:06:23.630Z,19.60
2022-08-26T20:08:52.095Z,19.50
2022-08-26T20:11:24.259Z,19.50
2022-08-26T20:13:51.748Z,19.40
2022-08-26T20:16:19.384Z,19.40
2022-08-26T20:19:05.295Z,19.40
2022-08-26T20:21:36.181Z,19.40
2022-08-26T20:24:11.425Z,19.30
2022-08-26T20:26:41.407Z,19.30
2022-08-26T20:29:10.707Z,19.30
2022-08-26T20:31:38.967Z,19.30
2022-08-26T20:34:07.264Z,19.20
2022-08-26T20:36:35.264Z,19.20
2022-08-26T20:39:02.915Z,19.20
2022-08-26T20:41:30.590Z,19.20
2022-08-26T20:43:58.467Z,19.20
2022-08-26T20:46:26.679Z,19.20
2022-08-26T20:48:54.652Z,19.20
2022-08-26T20:51:25.657Z,19.20
2022-08-26T20:53:53.250Z,19.10
2022-08-26T20:56:24.685Z,19.10
2022-08-26T20:58:54.525Z,19.00
2022-08-26T21:01:25.335Z,19.10
2022-08-26T21:03:54.302Z,19.00
2022-08-26T21:06:22.349Z,18.90
2022-08-26T21:08:50.833Z,18.80
2022-08-26T21:11:18.626Z,18.70
2022-08-26T21:14:03.839Z,18.70
2022-08-26T21:16:32.039Z,18.70
2022-08-26T21:19:00.533Z,18.60
2022-08-26T21:21:28.421Z,18.60
2022-08-26T21:23:56.503Z,18.60
2022-08-26T21:26:24.373Z,18.60
2022-08-26T21:28:51.893Z,18.60
2022-08-26T21:31:22.122Z,18.60
2022-08-26T21:33:51.371Z,18.70
2022-08-26T21:36:20.357Z,18.70
2022-08-26T21:38:47.987Z,18.70
2022-08-26T21:41:19.674Z,18.70
2022-08-26T21:43:49.508Z,18.70
2022-08-26T21:46:22.320Z,18.70
2022-08-26T21:48:52.252Z,18.70
2022-08-26T21:51:23.032Z,18.80
2022-08-26T21:53:54.216Z,18.80
2022-08-26T21:56:23.243Z,18.70
2022-08-26T21:58:52.440Z,18.80
2022-08-26T22:01:23.025Z,18.70
2022-08-26T22:03:53.731Z,18.70
2022-08-26T22:06:27.517Z,18.70
2022-08-26T22:08:56.943Z,18.60
2022-08-26T22:11:27.150Z,18.60
2022-08-26T22:13:57.469Z,18.50
2022-08-26T22:16:27.851Z,18.50
2022-08-26T22:18:55.670Z,18.50
2022-08-26T22:21:26.855Z,18.50
2022-08-26T22:23:58.161Z,18.50
2022-08-26T22:26:29.985Z,18.50
2022-08-26T22:28:59.761Z,18.50
2022-08-26T22:31:37.826Z,18.50
2022-08-26T22:34:13.347Z,18.50
2022-08-26T22:36:44.300Z,18.50
2022-08-26T22:39:14.513Z,18.50
2022-08-26T22:41:44.709Z,18.50
2022-08-26T22:44:13.681Z,18.40
2022-08-26T22:46:42.803Z,18.50
2022-08-26T22:49:12.914Z,18.40
2022-08-26T22:51:40.542Z,18.40
2022-08-26T22:54:08.310Z,18.40
2022-08-26T22:56:38.439Z,18.50
2022-08-26T22:59:09.114Z,18.40
2022-08-26T23:01:39.356Z,18.40
2022-08-26T23:04:08.358Z,18.30
2022-08-26T23:06:41.526Z,18.20
2022-08-26T23:09:11.474Z,18.20
2022-08-26T23:11:42.426Z,18.20
2022-08-26T23:14:10.166Z,17.90
2022-08-26T23:16:44.322Z,17.90
2022-08-26T23:19:14.790Z,17.70
2022-08-26T23:21:43.528Z,17.90
2022-08-26T23:24:12.458Z,17.80
2022-08-26T23:26:41.919Z,17.70
2022-08-26T23:29:11.634Z,17.70
2022-08-26T23:31:41.186Z,17.80
2022-08-26T23:34:29.361Z,17.80
2022-08-26T23:36:58.347Z,17.80
2022-08-26T23:39:26.971Z,17.90
2022-08-26T23:41:54.928Z,17.80
2022-08-26T23:44:22.775Z,17.90
2022-08-26T23:46:50.751Z,17.90
2022-08-26T23:49:18.622Z,17.90
2022-08-26T23:52:04.711Z,17.90
2022-08-26T23:54:33.678Z,17.80
2022-08-26T23:57:01.273Z,17.80
2022-08-26T23:59:28.870Z,17.80
